sensor_id;sensor_type;location;lat;lon;timestamp;temperature;humidity
2621;DHT22;1320;48.128;11.592;2022-08-18T00:02:27;21.50;99.90
2621;DHT22;1320;48.128;11.592;2022-08-18T00:04:51;21.40;99.90
2621;DHT22;1320;48.128;11.592;2022-08-18T00:07:23;21.40;99.90
2621;DHT22;1320;48.128;11.592;2022-08-18T00:09:49;21.30;99.90
2621;DHT22;1320;48.128;11.592;2022-08-18T00:12:42;21.30;99.90
2621;DHT22;1320;48.128;11.592;2022-08-18T00:15:12;21.30;99.90
2621;DHT22;1320;48.128;11.592;2022-08-18T00:17:38;21.30;99.90
2621;DHT22;1320;48.128;11.592;2022-08-18T00:20:07;21.20;99.90
2621;DHT22;1320;48.128;11.592;2022-08-18T00:22:34;21.20;99.90
2621;DHT22;1320;48.128;11.592;2022-08-18T00:25:00;21.10;99.90
2621;DHT22;1320;48.128;11.592;2022-08-18T00:27:28;21.20;99.90
2621;DHT22;1320;48.128;11.592;2022-08-18T00:29:59;21.20;99.90
2621;DHT22;1320;48.128;11.592;2022-08-18T00:32:32;21.30;99.90
2621;DHT22;1320;48.128;11.592;2022-08-18T00:37:31;21.30;99.90
2621;DHT22;1320;48.128;11.592;2022-08-18T00:39:57;21.20;99.90
2621;DHT22;1320;48.128;11.592;2022-08-18T00:42:27;21.20;99.90
2621;DHT22;1320;48.128;11.592;2022-08-18T00:44:53;21.10;99.90
2621;DHT22;1320;48.128;11.592;2022-08-18T00:47:19;21.10;99.90
2621;DHT22;1320;48.128;11.592;2022-08-18T00:49:47;21.00;99.90
2621;DHT22;1320;48.128;11.592;2022-08-18T00:52:14;21.00;99.90
2621;DHT22;1320;48.128;11.592;2022-08-18T00:54:43;21.00;99.90
2621;DHT22;1320;48.128;11.592;2022-08-18T01:04:57;21.00;99.90
2621;DHT22;1320;48.128;11.592;2022-08-18T01:07:38;21.10;99.90
2621;DHT22;1320;48.128;11.592;2022-08-18T01:10:07;21.10;99.90
2621;DHT22;1320;48.128;11.592;2022-08-18T01:12:33;21.20;99.90
2621;DHT22;1320;48.128;11.592;2022-08-18T01:14:59;21.20;99.90
2621;DHT22;1320;48.128;11.592;2022-08-18T01:17:26;21.10;99.90
2621;DHT22;1320;48.128;11.592;2022-08-18T01:20:16;21.10;99.90
2621;DHT22;1320;48.128;11.592;2022-08-18T01:23:02;21.10;99.90
2621;DHT22;1320;48.128;11.592;2022-08-18T01:25:31;21.10;99.90
2621;DHT22;1320;48.128;11.592;2022-08-18T01:28:16;21.00;99.90
2621;DHT22;1320;48.128;11.592;2022-08-18T01:30:49;21.00;99.90
2621;DHT22;1320;48.128;11.592;2022-08-18T01:33:16;21.00;99.90
2621;DHT22;1320;48.128;11.592;2022-08-18T01:35:44;20.90;99.90
2621;DHT22;1320;48.128;11.592;2022-08-18T01:38:18;20.90;99.90
2621;DHT22;1320;48.128;11.592;2022-08-18T01:40:45;20.80;99.90
2621;DHT22;1320;48.128;11.592;2022-08-18T01:43:11;20.80;99.90
2621;DHT22;1320;48.128;11.592;2022-08-18T01:45:37;20.70;99.90
2621;DHT22;1320;48.128;11.592;2022-08-18T01:48:03;20.70;99.90
2621;DHT22;1320;48.128;11.592;2022-08-18T01:52:58;20.50;99.90
2621;DHT22;1320;48.128;11.592;2022-08-18T01:55:24;20.50;99.90
2621;DHT22;1320;48.128;11.592;2022-08-18T01:57:53;20.50;99.90
2621;DHT22;1320;48.128;11.592;2022-08-18T02:00:19;20.40;99.90
2621;DHT22;1320;48.128;11.592;2022-08-18T02:02:46;20.40;99.90
2621;DHT22;1320;48.128;11.592;2022-08-18T02:05:20;20.40;99.90
2621;DHT22;1320;48.128;11.592;2022-08-18T02:07:48;20.40;99.90
2621;DHT22;1320;48.128;11.592;2022-08-18T02:10:14;20.30;99.90
2621;DHT22;1320;48.128;11.592;2022-08-18T02:12:40;20.30;99.90
2621;DHT22;1320;48.128;11.592;2022-08-18T02:22:39;20.30;99.90
2621;DHT22;1320;48.128;11.592;2022-08-18T02:42:14;20.40;99.90
2621;DHT22;1320;48.128;11.592;2022-08-18T02:49:37;20.30;99.90
2621;DHT22;1320;48.128;11.592;2022-08-18T02:52:03;20.30;99.90
2621;DHT22;1320;48.128;11.592;2022-08-18T02:54:29;20.30;99.90
2621;DHT22;1320;48.128;11.592;2022-08-18T02:56:54;20.20;99.90
2621;DHT22;1320;48.128;11.592;2022-08-18T02:59:24;20.20;99.90
2621;DHT22;1320;48.128;11.592;2022-08-18T03:01:53;20.10;99.90
2621;DHT22;1320;48.128;11.592;2022-08-18T03:04:25;20.10;99.90
2621;DHT22;1320;48.128;11.592;2022-08-18T03:06:53;20.10;99.90
2621;DHT22;1320;48.128;11.592;2022-08-18T03:09:19;20.10;99.90
2621;DHT22;1320;48.128;11.592;2022-08-18T03:11:48;20.50;99.90
2621;DHT22;1320;48.128;11.592;2022-08-18T03:14:14;19.90;99.90
2621;DHT22;1320;48.128;11.592;2022-08-18T03:16:43;20.00;99.90
2621;DHT22;1320;48.128;11.592;2022-08-18T03:19:09;19.90;99.90
2621;DHT22;1320;48.128;11.592;2022-08-18T03:21:36;20.00;99.90
2621;DHT22;1320;48.128;11.592;2022-08-18T03:24:03;20.00;99.90
2621;DHT22;1320;48.128;11.592;2022-08-18T03:26:31;20.00;99.90
2621;DHT22;1320;48.128;11.592;2022-08-18T03:28:58;20.00;99.90
2621;DHT22;1320;48.128;11.592;2022-08-18T03:31:28;20.00;99.90
2621;DHT22;1320;48.128;11.592;2022-08-18T03:33:57;19.90;99.90
2621;DHT22;1320;48.128;11.592;2022-08-18T03:36:25;20.00;99.90
2621;DHT22;1320;48.128;11.592;2022-08-18T03:38:52;20.00;99.90
2621;DHT22;1320;48.128;11.592;2022-08-18T03:41:21;20.00;99.90
2621;DHT22;1320;48.128;11.592;2022-08-18T03:43:48;20.00;99.90
2621;DHT22;1320;48.128;11.592;2022-08-18T03:46:15;20.10;99.90
2621;DHT22;1320;48.128;11.592;2022-08-18T03:48:42;20.10;99.90
2621;DHT22;1320;48.128;11.592;2022-08-18T03:53:40;20.00;99.90
2621;DHT22;1320;48.128;11.592;2022-08-18T03:56:09;20.10;99.90
2621;DHT22;1320;48.128;11.592;2022-08-18T03:58:47;20.10;99.90
2621;DHT22;1320;48.128;11.592;2022-08-18T04:01:19;20.10;99.90
2621;DHT22;1320;48.128;11.592;2022-08-18T04:03:47;20.10;99.90
2621;DHT22;1320;48.128;11.592;2022-08-18T04:06:22;20.20;99.90
2621;DHT22;1320;48.128;11.592;2022-08-18T04:08:53;20.20;99.90
2621;DHT22;1320;48.128;11.592;2022-08-18T04:11:19;20.20;99.90
2621;DHT22;1320;48.128;11.592;2022-08-18T04:13:45;20.20;99.90
2621;DHT22;1320;48.128;11.592;2022-08-18T04:16:11;20.20;99.90
2621;DHT22;1320;48.128;11.592;2022-08-18T04:18:37;20.20;99.90
2621;DHT22;1320;48.128;11.592;2022-08-18T04:21:06;20.20;99.90
2621;DHT22;1320;48.128;11.592;2022-08-18T04:23:37;20.20;99.90
2621;DHT22;1320;48.128;11.592;2022-08-18T04:26:04;20.20;99.90
2621;DHT22;1320;48.128;11.592;2022-08-18T04:28:31;20.20;99.90
2621;DHT22;1320;48.128;11.592;2022-08-18T04:30:57;20.20;99.90
2621;DHT22;1320;48.128;11.592;2022-08-18T04:33:27;20.20;99.90
2621;DHT22;1320;48.128;11.592;2022-08-18T04:35:54;20.20;99.90
2621;DHT22;1320;48.128;11.592;2022-08-18T04:38:21;20.30;99.90
2621;DHT22;1320;48.128;11.592;2022-08-18T04:40:47;20.30;99.90
2621;DHT22;1320;48.128;11.592;2022-08-18T04:43:13;20.30;99.90
2621;DHT22;1320;48.128;11.592;2022-08-18T04:45:46;20.30;99.90
2621;DHT22;1320;48.128;11.592;2022-08-18T04:48:13;20.30;99.90
2621;DHT22;1320;48.128;11.592;2022-08-18T04:50:41;20.30;99.90
2621;DHT22;1320;48.128;11.592;2022-08-18T04:53:06;20.30;99.90
2621;DHT22;1320;48.128;11.592;2022-08-18T04:55:54;20.40;99.90
2621;DHT22;1320;48.128;11.592;2022-08-18T04:58:21;20.40;99.90
2621;DHT22;1320;48.128;11.592;2022-08-18T05:00:56;20.40;99.90
2621;DHT22;1320;48.128;11.592;2022-08-18T05:03:23;20.40;99.90
2621;DHT22;1320;48.128;11.592;2022-08-18T05:05:54;20.50;99.90
2621;DHT22;1320;48.128;11.592;2022-08-18T05:08:23;20.50;99.90
2621;DHT22;1320;48.128;11.592;2022-08-18T05:10:55;20.60;99.90
2621;DHT22;1320;48.128;11.592;2022-08-18T05:13:24;20.70;99.90
2621;DHT22;1320;48.128;11.592;2022-08-18T05:15:58;20.70;99.90
2621;DHT22;1320;48.128;11.592;2022-08-18T05:18:29;20.80;99.90
2621;DHT22;1320;48.128;11.592;2022-08-18T05:20:56;20.80;99.90
2621;DHT22;1320;48.128;11.592;2022-08-18T05:23:22;20.90;99.90
2621;DHT22;1320;48.128;11.592;2022-08-18T05:25:48;21.00;99.90
2621;DHT22;1320;48.128;11.592;2022-08-18T05:28:14;21.10;99.90
2621;DHT22;1320;48.128;11.592;2022-08-18T05:36:00;21.40;99.90
2621;DHT22;1320;48.128;11.592;2022-08-18T05:41:19;21.50;99.90
2621;DHT22;1320;48.128;11.592;2022-08-18T05:43:47;21.60;99.90
2621;DHT22;1320;48.128;11.592;2022-08-18T05:46:13;21.60;99.90
2621;DHT22;1320;48.128;11.592;2022-08-18T05:48:39;21.70;99.90
2621;DHT22;1320;48.128;11.592;2022-08-18T05:51:16;21.70;99.90
2621;DHT22;1320;48.128;11.592;2022-08-18T05:53:43;21.80;99.90
2621;DHT22;1320;48.128;11.592;2022-08-18T05:56:33;21.80;99.90
2621;DHT22;1320;48.128;11.592;2022-08-18T05:59:29;21.90;99.90
2621;DHT22;1320;48.128;11.592;2022-08-18T06:02:04;22.00;99.90
2621;DHT22;1320;48.128;11.592;2022-08-18T06:04:41;22.10;99.90
2621;DHT22;1320;48.128;11.592;2022-08-18T06:07:12;22.10;99.90
2621;DHT22;1320;48.128;11.592;2022-08-18T06:09:51;22.20;99.90
2621;DHT22;1320;48.128;11.592;2022-08-18T06:17:43;22.50;99.90
2621;DHT22;1320;48.128;11.592;2022-08-18T06:22:45;22.60;99.90
2621;DHT22;1320;48.128;11.592;2022-08-18T06:28:02;22.70;99.90
2621;DHT22;1320;48.128;11.592;2022-08-18T06:30:47;22.70;99.90
2621;DHT22;1320;48.128;11.592;2022-08-18T06:35:58;22.80;99.90
2621;DHT22;1320;48.128;11.592;2022-08-18T06:38:59;22.80;99.90
2621;DHT22;1320;48.128;11.592;2022-08-18T06:41:37;22.80;99.90
2621;DHT22;1320;48.128;11.592;2022-08-18T06:49:04;22.90;99.90
2621;DHT22;1320;48.128;11.592;2022-08-18T06:51:31;22.90;99.90
2621;DHT22;1320;48.128;11.592;2022-08-18T07:01:55;23.10;99.90
2621;DHT22;1320;48.128;11.592;2022-08-18T07:06:56;23.20;99.90
2621;DHT22;1320;48.128;11.592;2022-08-18T07:09:32;23.20;99.90
2621;DHT22;1320;48.128;11.592;2022-08-18T07:12:07;23.30;99.90
2621;DHT22;1320;48.128;11.592;2022-08-18T07:14:49;23.40;99.90
2621;DHT22;1320;48.128;11.592;2022-08-18T07:17:27;23.40;99.90
2621;DHT22;1320;48.128;11.592;2022-08-18T07:20:05;23.40;99.90
2621;DHT22;1320;48.128;11.592;2022-08-18T07:22:32;23.50;99.90
2621;DHT22;1320;48.128;11.592;2022-08-18T07:25:22;23.50;99.90
2621;DHT22;1320;48.128;11.592;2022-08-18T07:27:49;23.60;99.90
2621;DHT22;1320;48.128;11.592;2022-08-18T07:32:44;23.50;99.90
2621;DHT22;1320;48.128;11.592;2022-08-18T07:35:16;23.60;99.90
2621;DHT22;1320;48.128;11.592;2022-08-18T07:37:45;23.60;99.90
2621;DHT22;1320;48.128;11.592;2022-08-18T07:40:32;23.70;99.90
2621;DHT22;1320;48.128;11.592;2022-08-18T07:43:14;23.80;99.90
2621;DHT22;1320;48.128;11.592;2022-08-18T07:45:45;23.90;99.90
2621;DHT22;1320;48.128;11.592;2022-08-18T07:48:30;24.10;99.90
2621;DHT22;1320;48.128;11.592;2022-08-18T07:51:18;24.20;99.90
2621;DHT22;1320;48.128;11.592;2022-08-18T07:53:51;24.50;99.90
2621;DHT22;1320;48.128;11.592;2022-08-18T07:59:31;24.80;99.90
2621;DHT22;1320;48.128;11.592;2022-08-18T08:04:41;25.20;99.90
2621;DHT22;1320;48.128;11.592;2022-08-18T08:12:42;26.00;99.90
2621;DHT22;1320;48.128;11.592;2022-08-18T08:15:40;26.30;99.90
2621;DHT22;1320;48.128;11.592;2022-08-18T08:20:53;26.50;99.90
2621;DHT22;1320;48.128;11.592;2022-08-18T08:24:19;27.10;99.90
2621;DHT22;1320;48.128;11.592;2022-08-18T08:26:41;27.50;99.90
2621;DHT22;1320;48.128;11.592;2022-08-18T08:29:39;27.80;99.90
2621;DHT22;1320;48.128;11.592;2022-08-18T08:32:19;27.90;99.90
2621;DHT22;1320;48.128;11.592;2022-08-18T08:34:53;27.90;99.90
2621;DHT22;1320;48.128;11.592;2022-08-18T08:37:35;28.00;99.90
2621;DHT22;1320;48.128;11.592;2022-08-18T09:11:23;29.50;93.80
2621;DHT22;1320;48.128;11.592;2022-08-18T09:24:58;30.70;89.00
2621;DHT22;1320;48.128;11.592;2022-08-18T09:27:44;30.80;89.50
2621;DHT22;1320;48.128;11.592;2022-08-18T09:30:41;30.90;88.60
2621;DHT22;1320;48.128;11.592;2022-08-18T09:33:27;31.00;87.80
2621;DHT22;1320;48.128;11.592;2022-08-18T09:38:37;31.90;84.20
2621;DHT22;1320;48.128;11.592;2022-08-18T09:41:37;32.00;83.90
2621;DHT22;1320;48.128;11.592;2022-08-18T09:44:13;32.00;83.80
2621;DHT22;1320;48.128;11.592;2022-08-18T09:54:59;32.40;82.20
2621;DHT22;1320;48.128;11.592;2022-08-18T09:57:26;32.30;82.20
2621;DHT22;1320;48.128;11.592;2022-08-18T09:59:56;32.20;82.00
2621;DHT22;1320;48.128;11.592;2022-08-18T10:21:26;31.40;81.00
2621;DHT22;1320;48.128;11.592;2022-08-18T10:24:15;31.50;81.10
2621;DHT22;1320;48.128;11.592;2022-08-18T10:50:34;32.40;78.30
2621;DHT22;1320;48.128;11.592;2022-08-18T11:06:28;32.60;76.80
2621;DHT22;1320;48.128;11.592;2022-08-18T11:09:01;32.50;77.70
2621;DHT22;1320;48.128;11.592;2022-08-18T11:11:44;32.40;78.00
2621;DHT22;1320;48.128;11.592;2022-08-18T11:17:07;31.90;79.20
2621;DHT22;1320;48.128;11.592;2022-08-18T11:19:41;31.70;79.20
2621;DHT22;1320;48.128;11.592;2022-08-18T11:22:30;31.60;79.30
2621;DHT22;1320;48.128;11.592;2022-08-18T11:24:57;31.30;80.10
2621;DHT22;1320;48.128;11.592;2022-08-18T11:27:32;31.00;80.20
2621;DHT22;1320;48.128;11.592;2022-08-18T11:30:02;30.90;80.30
2621;DHT22;1320;48.128;11.592;2022-08-18T11:32:36;31.10;80.00
2621;DHT22;1320;48.128;11.592;2022-08-18T11:35:04;31.20;80.20
2621;DHT22;1320;48.128;11.592;2022-08-18T11:43:15;31.10;81.10
2621;DHT22;1320;48.128;11.592;2022-08-18T11:48:21;31.00;81.50
2621;DHT22;1320;48.128;11.592;2022-08-18T12:01:53;31.30;81.30
2621;DHT22;1320;48.128;11.592;2022-08-18T12:04:55;31.10;81.20
2621;DHT22;1320;48.128;11.592;2022-08-18T12:07:33;30.90;82.50
2621;DHT22;1320;48.128;11.592;2022-08-18T12:10:21;30.90;82.00
2621;DHT22;1320;48.128;11.592;2022-08-18T12:12:49;31.10;82.00
2621;DHT22;1320;48.128;11.592;2022-08-18T12:17:43;31.20;82.20
2621;DHT22;1320;48.128;11.592;2022-08-18T12:20:11;31.20;82.30
2621;DHT22;1320;48.128;11.592;2022-08-18T12:22:39;31.20;82.50
2621;DHT22;1320;48.128;11.592;2022-08-18T12:25:07;31.30;82.10
2621;DHT22;1320;48.128;11.592;2022-08-18T12:27:34;31.30;82.40
2621;DHT22;1320;48.128;11.592;2022-08-18T12:30:00;31.30;82.30
2621;DHT22;1320;48.128;11.592;2022-08-18T12:32:28;31.30;82.30
2621;DHT22;1320;48.128;11.592;2022-08-18T12:34:55;31.40;81.80
2621;DHT22;1320;48.128;11.592;2022-08-18T12:37:24;31.50;81.70
2621;DHT22;1320;48.128;11.592;2022-08-18T12:39:50;31.40;81.20
2621;DHT22;1320;48.128;11.592;2022-08-18T12:42:16;31.30;81.90
2621;DHT22;1320;48.128;11.592;2022-08-18T12:44:43;31.20;82.30
2621;DHT22;1320;48.128;11.592;2022-08-18T12:47:21;31.00;81.30
2621;DHT22;1320;48.128;11.592;2022-08-18T12:49:48;30.90;82.20
2621;DHT22;1320;48.128;11.592;2022-08-18T12:52:14;30.80;81.90
2621;DHT22;1320;48.128;11.592;2022-08-18T12:54:40;30.80;81.40
2621;DHT22;1320;48.128;11.592;2022-08-18T12:57:18;30.90;81.60
2621;DHT22;1320;48.128;11.592;2022-08-18T12:59:44;30.90;82.40
2621;DHT22;1320;48.128;11.592;2022-08-18T13:02:11;30.90;81.60
2621;DHT22;1320;48.128;11.592;2022-08-18T13:04:37;30.90;81.10
2621;DHT22;1320;48.128;11.592;2022-08-18T13:07:03;31.00;80.60
2621;DHT22;1320;48.128;11.592;2022-08-18T13:09:31;31.00;80.10
2621;DHT22;1320;48.128;11.592;2022-08-18T13:11:57;31.00;79.30
2621;DHT22;1320;48.128;11.592;2022-08-18T13:14:23;31.00;80.00
2621;DHT22;1320;48.128;11.592;2022-08-18T13:16:48;30.90;80.00
2621;DHT22;1320;48.128;11.592;2022-08-18T13:19:16;30.80;79.80
2621;DHT22;1320;48.128;11.592;2022-08-18T13:21:42;30.60;81.20
2621;DHT22;1320;48.128;11.592;2022-08-18T13:24:08;30.60;81.10
2621;DHT22;1320;48.128;11.592;2022-08-18T13:26:37;30.60;81.30
2621;DHT22;1320;48.128;11.592;2022-08-18T13:29:04;30.50;81.40
2621;DHT22;1320;48.128;11.592;2022-08-18T13:31:30;30.40;81.90
2621;DHT22;1320;48.128;11.592;2022-08-18T13:33:56;30.30;82.70
2621;DHT22;1320;48.128;11.592;2022-08-18T13:36:23;30.10;83.00
2621;DHT22;1320;48.128;11.592;2022-08-18T13:38:49;30.00;83.70
2621;DHT22;1320;48.128;11.592;2022-08-18T13:41:17;29.80;84.50
2621;DHT22;1320;48.128;11.592;2022-08-18T13:43:43;29.70;85.00
2621;DHT22;1320;48.128;11.592;2022-08-18T13:46:14;29.70;85.80
2621;DHT22;1320;48.128;11.592;2022-08-18T13:48:40;29.60;86.10
2621;DHT22;1320;48.128;11.592;2022-08-18T13:51:10;29.50;86.80
2621;DHT22;1320;48.128;11.592;2022-08-18T13:53:39;29.40;86.90
2621;DHT22;1320;48.128;11.592;2022-08-18T13:56:05;29.30;86.80
2621;DHT22;1320;48.128;11.592;2022-08-18T13:58:34;29.40;86.80
2621;DHT22;1320;48.128;11.592;2022-08-18T14:01:03;29.30;87.50
2621;DHT22;1320;48.128;11.592;2022-08-18T14:03:29;29.30;87.50
2621;DHT22;1320;48.128;11.592;2022-08-18T14:05:55;29.30;88.00
2621;DHT22;1320;48.128;11.592;2022-08-18T14:08:25;29.20;87.90
2621;DHT22;1320;48.128;11.592;2022-08-18T14:10:54;29.20;88.20
2621;DHT22;1320;48.128;11.592;2022-08-18T14:13:21;29.20;88.20
2621;DHT22;1320;48.128;11.592;2022-08-18T14:15:48;29.20;88.40
2621;DHT22;1320;48.128;11.592;2022-08-18T14:18:15;29.10;88.40
2621;DHT22;1320;48.128;11.592;2022-08-18T14:20:40;29.10;88.80
2621;DHT22;1320;48.128;11.592;2022-08-18T14:23:25;29.10;88.60
2621;DHT22;1320;48.128;11.592;2022-08-18T14:26:10;29.10;88.80
2621;DHT22;1320;48.128;11.592;2022-08-18T14:28:54;29.00;89.30
2621;DHT22;1320;48.128;11.592;2022-08-18T14:31:20;29.00;89.60
2621;DHT22;1320;48.128;11.592;2022-08-18T14:33:47;29.00;89.50
2621;DHT22;1320;48.128;11.592;2022-08-18T14:36:13;28.90;89.00
2621;DHT22;1320;48.128;11.592;2022-08-18T14:38:40;28.90;89.60
2621;DHT22;1320;48.128;11.592;2022-08-18T14:41:09;28.80;89.10
2621;DHT22;1320;48.128;11.592;2022-08-18T14:43:35;28.80;89.20
2621;DHT22;1320;48.128;11.592;2022-08-18T14:46:02;28.80;89.50
2621;DHT22;1320;48.128;11.592;2022-08-18T14:48:29;28.80;89.50
2621;DHT22;1320;48.128;11.592;2022-08-18T14:50:56;28.80;89.40
2621;DHT22;1320;48.128;11.592;2022-08-18T14:53:26;28.90;89.30
2621;DHT22;1320;48.128;11.592;2022-08-18T14:55:53;28.90;89.80
2621;DHT22;1320;48.128;11.592;2022-08-18T14:58:24;28.90;89.10
2621;DHT22;1320;48.128;11.592;2022-08-18T15:00:59;28.90;89.40
2621;DHT22;1320;48.128;11.592;2022-08-18T15:03:27;28.90;89.20
2621;DHT22;1320;48.128;11.592;2022-08-18T15:05:53;28.90;89.30
2621;DHT22;1320;48.128;11.592;2022-08-18T15:08:19;28.90;89.10
2621;DHT22;1320;48.128;11.592;2022-08-18T15:10:46;28.90;89.30
2621;DHT22;1320;48.128;11.592;2022-08-18T15:13:12;28.80;89.40
2621;DHT22;1320;48.128;11.592;2022-08-18T15:15:38;28.80;89.80
2621;DHT22;1320;48.128;11.592;2022-08-18T15:18:04;28.70;90.10
2621;DHT22;1320;48.128;11.592;2022-08-18T15:20:30;28.60;90.10
2621;DHT22;1320;48.128;11.592;2022-08-18T15:23:00;28.60;90.20
2621;DHT22;1320;48.128;11.592;2022-08-18T15:25:47;28.50;90.40
2621;DHT22;1320;48.128;11.592;2022-08-18T15:28:19;28.40;90.40
2621;DHT22;1320;48.128;11.592;2022-08-18T15:30:49;28.30;90.60
2621;DHT22;1320;48.128;11.592;2022-08-18T15:33:16;28.30;90.80
2621;DHT22;1320;48.128;11.592;2022-08-18T15:35:43;28.20;90.80
2621;DHT22;1320;48.128;11.592;2022-08-18T15:38:10;28.20;90.90
2621;DHT22;1320;48.128;11.592;2022-08-18T15:40:47;28.20;91.10
2621;DHT22;1320;48.128;11.592;2022-08-18T15:43:13;28.10;91.20
2621;DHT22;1320;48.128;11.592;2022-08-18T15:45:41;28.10;91.40
2621;DHT22;1320;48.128;11.592;2022-08-18T15:48:09;28.00;91.50
2621;DHT22;1320;48.128;11.592;2022-08-18T15:50:35;28.00;91.90
2621;DHT22;1320;48.128;11.592;2022-08-18T15:53:04;27.90;92.30
2621;DHT22;1320;48.128;11.592;2022-08-18T15:55:32;27.80;92.30
2621;DHT22;1320;48.128;11.592;2022-08-18T15:57:58;27.80;92.60
2621;DHT22;1320;48.128;11.592;2022-08-18T16:00:27;27.80;92.70
2621;DHT22;1320;48.128;11.592;2022-08-18T16:02:57;27.80;92.70
2621;DHT22;1320;48.128;11.592;2022-08-18T16:05:28;27.70;92.70
2621;DHT22;1320;48.128;11.592;2022-08-18T16:07:55;27.70;92.70
2621;DHT22;1320;48.128;11.592;2022-08-18T16:10:24;27.60;92.70
2621;DHT22;1320;48.128;11.592;2022-08-18T16:12:51;27.60;92.70
2621;DHT22;1320;48.128;11.592;2022-08-18T16:15:20;27.60;92.90
2621;DHT22;1320;48.128;11.592;2022-08-18T16:17:46;27.60;92.80
2621;DHT22;1320;48.128;11.592;2022-08-18T16:20:13;27.50;93.00
2621;DHT22;1320;48.128;11.592;2022-08-18T16:22:39;27.50;92.90
2621;DHT22;1320;48.128;11.592;2022-08-18T16:25:06;27.40;92.90
2621;DHT22;1320;48.128;11.592;2022-08-18T16:27:36;27.40;92.80
2621;DHT22;1320;48.128;11.592;2022-08-18T16:30:07;27.40;92.90
2621;DHT22;1320;48.128;11.592;2022-08-18T16:32:34;27.40;93.10
2621;DHT22;1320;48.128;11.592;2022-08-18T16:34:59;27.40;93.30
2621;DHT22;1320;48.128;11.592;2022-08-18T16:37:26;27.40;93.70
2621;DHT22;1320;48.128;11.592;2022-08-18T16:39:55;27.40;93.90
2621;DHT22;1320;48.128;11.592;2022-08-18T16:42:21;27.30;94.00
2621;DHT22;1320;48.128;11.592;2022-08-18T16:44:46;27.30;94.20
2621;DHT22;1320;48.128;11.592;2022-08-18T16:47:13;27.20;94.50
2621;DHT22;1320;48.128;11.592;2022-08-18T16:49:42;27.20;94.90
2621;DHT22;1320;48.128;11.592;2022-08-18T16:52:10;27.10;95.30
2621;DHT22;1320;48.128;11.592;2022-08-18T16:54:36;27.10;95.30
2621;DHT22;1320;48.128;11.592;2022-08-18T16:57:02;27.10;95.50
2621;DHT22;1320;48.128;11.592;2022-08-18T16:59:28;27.10;95.40
2621;DHT22;1320;48.128;11.592;2022-08-18T17:02:12;27.10;95.40
2621;DHT22;1320;48.128;11.592;2022-08-18T17:04:56;27.10;95.40
2621;DHT22;1320;48.128;11.592;2022-08-18T17:07:27;27.10;95.40
2621;DHT22;1320;48.128;11.592;2022-08-18T17:09:54;27.10;95.40
2621;DHT22;1320;48.128;11.592;2022-08-18T17:12:19;27.10;95.30
2621;DHT22;1320;48.128;11.592;2022-08-18T17:14:45;27.10;95.20
2621;DHT22;1320;48.128;11.592;2022-08-18T17:17:13;27.10;95.10
2621;DHT22;1320;48.128;11.592;2022-08-18T17:19:43;27.10;95.10
2621;DHT22;1320;48.128;11.592;2022-08-18T17:22:09;27.00;94.90
2621;DHT22;1320;48.128;11.592;2022-08-18T17:24:35;27.00;94.90
2621;DHT22;1320;48.128;11.592;2022-08-18T17:29:34;26.90;94.80
2621;DHT22;1320;48.128;11.592;2022-08-18T17:32:07;26.80;95.80
2621;DHT22;1320;48.128;11.592;2022-08-18T17:44:49;22.40;99.90
2621;DHT22;1320;48.128;11.592;2022-08-18T17:47:19;21.50;99.90
2621;DHT22;1320;48.128;11.592;2022-08-18T17:49:46;20.80;99.90
2621;DHT22;1320;48.128;11.592;2022-08-18T17:52:36;20.30;99.90
2621;DHT22;1320;48.128;11.592;2022-08-18T17:55:29;20.10;99.90
2621;DHT22;1320;48.128;11.592;2022-08-18T17:58:21;20.10;99.90
2621;DHT22;1320;48.128;11.592;2022-08-18T18:00:49;20.10;99.90
2621;DHT22;1320;48.128;11.592;2022-08-18T18:03:15;20.20;99.90
2621;DHT22;1320;48.128;11.592;2022-08-18T18:05:48;20.20;99.90
2621;DHT22;1320;48.128;11.592;2022-08-18T18:08:16;20.30;99.90
2621;DHT22;1320;48.128;11.592;2022-08-18T18:10:47;20.40;99.90
2621;DHT22;1320;48.128;11.592;2022-08-18T18:15:57;20.50;99.90
2621;DHT22;1320;48.128;11.592;2022-08-18T18:18:39;20.50;99.90
2621;DHT22;1320;48.128;11.592;2022-08-18T18:21:11;20.50;99.90
2621;DHT22;1320;48.128;11.592;2022-08-18T18:23:51;20.50;99.90
2621;DHT22;1320;48.128;11.592;2022-08-18T18:26:44;20.40;99.90
2621;DHT22;1320;48.128;11.592;2022-08-18T18:29:15;20.40;99.90
2621;DHT22;1320;48.128;11.592;2022-08-18T18:34:37;20.30;99.90
2621;DHT22;1320;48.128;11.592;2022-08-18T18:37:25;20.30;99.90
2621;DHT22;1320;48.128;11.592;2022-08-18T18:39:58;20.30;99.90
2621;DHT22;1320;48.128;11.592;2022-08-18T18:42:28;20.20;99.90
2621;DHT22;1320;48.128;11.592;2022-08-18T18:44:57;20.20;99.90
2621;DHT22;1320;48.128;11.592;2022-08-18T18:47:54;20.20;99.90
2621;DHT22;1320;48.128;11.592;2022-08-18T18:50:23;20.20;99.90
2621;DHT22;1320;48.128;11.592;2022-08-18T18:55:27;20.10;99.90
2621;DHT22;1320;48.128;11.592;2022-08-18T19:00:48;20.20;99.90
2621;DHT22;1320;48.128;11.592;2022-08-18T19:03:25;20.20;99.90
2621;DHT22;1320;48.128;11.592;2022-08-18T19:11:32;20.20;99.90
2621;DHT22;1320;48.128;11.592;2022-08-18T19:14:08;20.20;99.90
2621;DHT22;1320;48.128;11.592;2022-08-18T19:16:48;20.20;99.90
2621;DHT22;1320;48.128;11.592;2022-08-18T19:19:29;20.20;99.90
2621;DHT22;1320;48.128;11.592;2022-08-18T19:22:22;20.20;99.90
2621;DHT22;1320;48.128;11.592;2022-08-18T19:24:58;20.30;99.90
2621;DHT22;1320;48.128;11.592;2022-08-18T19:27:46;20.40;99.90
2621;DHT22;1320;48.128;11.592;2022-08-18T19:30:14;20.40;99.90
2621;DHT22;1320;48.128;11.592;2022-08-18T19:32:50;20.40;99.90
2621;DHT22;1320;48.128;11.592;2022-08-18T19:41:42;20.40;99.90
2621;DHT22;1320;48.128;11.592;2022-08-18T19:44:36;20.40;99.90
2621;DHT22;1320;48.128;11.592;2022-08-18T19:55:30;20.10;99.90
2621;DHT22;1320;48.128;11.592;2022-08-18T20:00:42;20.10;99.90
2621;DHT22;1320;48.128;11.592;2022-08-18T20:15:17;20.00;99.90
2621;DHT22;1320;48.128;11.592;2022-08-18T20:20:26;20.00;99.90
2621;DHT22;1320;48.128;11.592;2022-08-18T20:22:53;20.00;99.90
2621;DHT22;1320;48.128;11.592;2022-08-18T20:30:28;20.10;99.90
2621;DHT22;1320;48.128;11.592;2022-08-18T20:36:08;20.20;99.90
2621;DHT22;1320;48.128;11.592;2022-08-18T20:41:42;20.20;99.90
2621;DHT22;1320;48.128;11.592;2022-08-18T20:44:30;20.20;99.90
2621;DHT22;1320;48.128;11.592;2022-08-18T20:56:38;20.40;99.90
2621;DHT22;1320;48.128;11.592;2022-08-18T20:59:11;20.40;99.90
2621;DHT22;1320;48.128;11.592;2022-08-18T21:01:37;20.40;99.90
2621;DHT22;1320;48.128;11.592;2022-08-18T21:04:03;20.40;99.90
2621;DHT22;1320;48.128;11.592;2022-08-18T21:06:32;20.50;99.90
2621;DHT22;1320;48.128;11.592;2022-08-18T21:08:59;20.50;99.90
2621;DHT22;1320;48.128;11.592;2022-08-18T21:11:40;20.50;99.90
2621;DHT22;1320;48.128;11.592;2022-08-18T21:14:08;20.60;99.90
2621;DHT22;1320;48.128;11.592;2022-08-18T21:16:44;20.60;99.90
2621;DHT22;1320;48.128;11.592;2022-08-18T21:19:21;20.60;99.90
2621;DHT22;1320;48.128;11.592;2022-08-18T21:22:02;20.60;99.90
2621;DHT22;1320;48.128;11.592;2022-08-18T21:24:41;20.60;99.90
2621;DHT22;1320;48.128;11.592;2022-08-18T21:29:53;20.60;99.90